Time;durP1;ratioP1;P1;durP2;ratioP2;P2;SDS_P1;SDS_P2;PMS_P1;PMS_P2;Temp;Humidity;BMP_temperature;BMP_pressure;BME280_temperature;BME280_humidity;BME280_pressure;Samples;Min_cycle;Max_cycle;Signal;HPM_P1;HPM_P2
2023/04/09 00:02:12;;;;;;;39.63;19.50;;;;;;;5.49;100.00;102500.91;5270495;28;20481;-73
2023/04/09 00:04:43;;;;;;;43.10;20.88;;;;;;;5.45;100.00;102515.34;5269348;28;20032;-73
2023/04/09 00:07:13;;;;;;;41.80;21.02;;;;;;;5.42;100.00;102505.75;5275852;28;20032;-73
2023/04/09 00:09:44;;;;;;;46.50;21.92;;;;;;;5.41;100.00;102506.66;5264813;28;20036;-73
2023/04/09 00:12:14;;;;;;;40.38;21.27;;;;;;;5.42;100.00;102505.75;5264731;28;20024;-73
2023/04/09 00:14:44;;;;;;;44.40;23.10;;;;;;;5.41;100.00;102503.16;5285719;28;20027;-73
2023/04/09 00:17:15;;;;;;;41.97;20.80;;;;;;;5.40;100.00;102504.97;5272933;28;20028;-73
2023/04/09 00:19:47;;;;;;;42.80;21.77;;;;;;;5.38;100.00;102501.56;5264265;28;20036;-73
2023/04/09 00:22:17;;;;;;;38.20;20.35;;;;;;;5.37;100.00;102501.63;5264134;28;20137;-73
2023/04/09 00:24:48;;;;;;;41.28;19.60;;;;;;;5.31;100.00;102504.66;5274443;28;20027;-73
2023/04/09 00:27:18;;;;;;;42.78;21.20;;;;;;;5.26;100.00;102499.59;5268830;28;20032;-73
2023/04/09 00:29:49;;;;;;;44.92;22.20;;;;;;;5.24;100.00;102498.84;5265597;28;20160;-73
2023/04/09 00:32:19;;;;;;;50.97;21.48;;;;;;;5.20;100.00;102489.34;5265322;28;20115;-73
2023/04/09 00:34:50;;;;;;;45.80;22.45;;;;;;;5.17;100.00;102492.16;5268802;28;20020;-73
2023/04/09 00:37:20;;;;;;;42.92;19.35;;;;;;;5.13;100.00;102499.50;5265855;28;20028;-72
2023/04/09 00:39:51;;;;;;;43.20;21.25;;;;;;;5.13;100.00;102491.50;5266560;28;20102;-73
2023/04/09 00:42:21;;;;;;;40.88;21.27;;;;;;;5.11;100.00;102484.56;5267359;28;20444;-72
2023/04/09 00:44:52;;;;;;;41.80;21.00;;;;;;;5.10;100.00;102488.16;5264401;28;20114;-73
2023/04/09 00:47:22;;;;;;;43.67;21.38;;;;;;;5.08;100.00;102490.06;5263982;28;20024;-73
2023/04/09 00:49:54;;;;;;;46.75;23.23;;;;;;;5.07;100.00;102483.91;5265109;28;20031;-72
2023/04/09 00:52:25;;;;;;;43.85;21.58;;;;;;;5.08;100.00;102488.25;5265668;28;20119;-73
2023/04/09 00:54:57;;;;;;;44.13;21.60;;;;;;;5.13;100.00;102482.69;5265144;28;20540;-73
2023/04/09 00:57:28;;;;;;;38.63;18.38;;;;;;;5.16;100.00;102477.16;5264635;28;20423;-73
2023/04/09 00:59:59;;;;;;;38.00;18.17;;;;;;;5.16;100.00;102478.00;5263785;28;20027;-73
2023/04/09 01:02:30;;;;;;;40.10;19.88;;;;;;;5.19;100.00;102476.97;5281987;28;20016;-73
2023/04/09 01:05:01;;;;;;;41.92;20.58;;;;;;;5.25;100.00;102475.75;5268059;28;20028;-73
2023/04/09 01:07:53;;;;;;;41.95;19.80;;;;;;;5.32;100.00;102477.97;5278326;28;20081;-73
2023/04/09 01:10:34;;;;;;;40.85;21.25;;;;;;;5.45;100.00;102478.06;5278330;28;20116;-73
2023/04/09 01:13:34;;;;;;;42.30;20.55;;;;;;;5.57;100.00;102473.78;5283942;28;20034;-73
2023/04/09 01:16:09;;;;;;;45.47;21.23;;;;;;;5.67;100.00;102474.94;5267298;28;20526;-73
2023/04/09 01:18:55;;;;;;;48.40;22.70;;;;;;;5.80;100.00;102477.72;5265216;28;20133;-73
2023/04/09 01:21:30;;;;;;;47.78;22.75;;;;;;;5.90;100.00;102474.38;5275351;28;20567;-72
2023/04/09 01:24:17;;;;;;;;;;;;;;;5.97;100.00;102480.19;5274952;28;20028;-73
2023/04/09 01:27:06;;;;;;;52.63;23.83;;;;;;;6.06;100.00;102484.09;5268959;28;19915;-73
2023/04/09 01:29:45;;;;;;;48.15;23.77;;;;;;;6.11;100.00;102477.50;5276081;28;20057;-73
2023/04/09 01:32:18;;;;;;;54.67;24.08;;;;;;;6.16;100.00;102483.41;5273812;28;20451;-73
2023/04/09 01:34:50;;;;;;;51.45;24.63;;;;;;;6.24;100.00;102480.25;5268727;28;20042;-72
2023/04/09 01:37:22;;;;;;;51.13;24.40;;;;;;;6.30;100.00;102477.19;5268562;28;20032;-73
2023/04/09 01:39:52;;;;;;;53.08;25.45;;;;;;;6.40;100.00;102474.78;5268913;28;20035;-73
2023/04/09 01:42:24;;;;;;;50.17;25.65;;;;;;;6.51;100.00;102484.75;5269279;28;20503;-73
2023/04/09 01:44:55;;;;;;;53.13;25.70;;;;;;;6.59;100.00;102479.78;5267433;28;20035;-73
2023/04/09 01:47:27;;;;;;;54.60;27.58;;;;;;;6.68;100.00;102471.19;5267667;28;20031;-73
2023/04/09 01:49:57;;;;;;;53.13;25.83;;;;;;;6.77;100.00;102483.03;5282153;28;20031;-73
2023/04/09 01:52:28;;;;;;;50.72;24.00;;;;;;;6.83;100.00;102475.50;5268991;28;20035;-73
2023/04/09 01:55:06;;;;;;;49.65;23.98;;;;;;;6.87;100.00;102477.00;5268941;28;20050;-73
2023/04/09 01:57:37;;;;;;;48.25;24.63;;;;;;;6.92;100.00;102480.19;5268201;28;20016;-73
2023/04/09 02:00:09;;;;;;;57.40;26.35;;;;;;;6.97;100.00;102474.56;5268076;28;20032;-73
2023/04/09 02:02:47;;;;;;;58.28;28.73;;;;;;;7.01;100.00;102473.41;5274322;28;20137;-73
2023/04/09 02:05:22;;;;;;;61.42;29.17;;;;;;;7.06;100.00;102470.44;5268372;28;20370;-73
2023/04/09 02:07:55;;;;;;;62.72;28.98;;;;;;;7.10;100.00;102475.44;5266830;28;20023;-73
2023/04/09 02:10:34;;;;;;;62.30;28.38;;;;;;;7.16;100.00;102463.50;5268004;28;20126;-73
2023/04/09 02:13:10;;;;;;;61.83;28.65;;;;;;;7.19;100.00;102466.81;5274195;28;20038;-73
2023/04/09 02:15:55;;;;;;;66.57;30.75;;;;;;;7.25;100.00;102465.53;5272394;28;20024;-73
2023/04/09 02:18:29;;;;;;;68.32;30.60;;;;;;;7.28;100.00;102460.00;5266893;28;20020;-73
2023/04/09 02:21:00;;;;;;;70.82;32.08;;;;;;;7.31;100.00;102459.78;5270321;28;20851;-73
2023/04/09 02:23:34;;;;;;;74.85;32.85;;;;;;;7.33;100.00;102460.56;5276644;27;20109;-73
2023/04/09 02:26:05;;;;;;;78.40;33.13;;;;;;;7.42;100.00;102461.69;5274098;28;20102;-73
2023/04/09 02:28:35;;;;;;;77.85;32.03;;;;;;;7.44;100.00;102457.13;5275174;28;20035;-73
2023/04/09 02:31:06;;;;;;;77.65;33.22;;;;;;;7.46;100.00;102449.84;5267440;28;20035;-73
2023/04/09 02:33:37;;;;;;;76.38;33.97;;;;;;;7.49;100.00;102452.31;5267622;28;20051;-73
2023/04/09 02:36:11;;;;;;;76.35;32.70;;;;;;;7.51;100.00;102455.72;5268045;28;20472;-73
2023/04/09 02:38:42;;;;;;;76.22;33.58;;;;;;;7.52;100.00;102452.94;5281521;28;20027;-73
2023/04/09 02:41:12;;;;;;;75.45;33.22;;;;;;;7.51;100.00;102453.06;5267744;28;20080;-73
2023/04/09 02:43:43;;;;;;;81.28;34.70;;;;;;;7.51;100.00;102442.38;5267272;28;20039;-73
2023/04/09 02:46:13;;;;;;;77.72;33.65;;;;;;;7.54;100.00;102444.84;5267514;28;20028;-73
2023/04/09 02:48:44;;;;;;;79.80;34.08;;;;;;;7.55;100.00;102451.88;5273279;28;20023;-73
2023/04/09 02:51:15;;;;;;;80.13;32.83;;;;;;;7.55;100.00;102443.88;5274982;27;20111;-73
2023/04/09 02:53:45;;;;;;;79.90;34.53;;;;;;;7.57;100.00;102441.09;5267661;28;20020;-73
2023/04/09 02:56:16;;;;;;;79.85;34.30;;;;;;;7.57;100.00;102436.59;5267067;28;20954;-73
2023/04/09 02:58:48;;;;;;;79.57;35.97;;;;;;;7.58;100.00;102445.47;5267328;28;20024;-73
2023/04/09 03:01:19;;;;;;;78.30;33.85;;;;;;;7.60;100.00;102435.53;5270745;28;20028;-73
2023/04/09 03:03:50;;;;;;;74.20;33.35;;;;;;;7.59;100.00;102436.50;5266616;28;20480;-73
2023/04/09 03:06:21;;;;;;;77.43;34.08;;;;;;;7.59;100.00;102434.69;5267066;28;20024;-73
2023/04/09 03:08:51;;;;;;;76.85;33.72;;;;;;;7.60;100.00;102436.41;5265795;28;20687;-73
2023/04/09 03:11:22;;;;;;;74.95;33.22;;;;;;;7.63;100.00;102432.63;5280483;28;20024;-73
2023/04/09 03:13:52;;;;;;;76.28;33.65;;;;;;;7.58;100.00;102427.66;5266107;28;20516;-73
2023/04/09 03:16:24;;;;;;;80.00;35.47;;;;;;;7.59;100.00;102428.50;5266634;28;20824;-73
2023/04/09 03:18:55;;;;;;;86.93;35.35;;;;;;;7.58;100.00;102424.97;5266951;28;20024;-73
2023/04/09 03:21:26;;;;;;;78.35;34.28;;;;;;;7.59;100.00;102425.81;5273562;28;20034;-73
2023/04/09 03:23:56;;;;;;;82.40;35.38;;;;;;;7.60;100.00;102419.50;5272398;28;20477;-74
2023/04/09 03:26:27;;;;;;;80.38;34.88;;;;;;;7.60;100.00;102420.38;5266701;28;20158;-73
2023/04/09 03:28:57;;;;;;;80.20;33.70;;;;;;;7.61;100.00;102415.88;5265735;28;20027;-73
2023/04/09 03:31:28;;;;;;;79.25;34.35;;;;;;;7.60;100.00;102412.34;5266308;28;20039;-73
2023/04/09 03:33:58;;;;;;;74.18;33.22;;;;;;;7.60;100.00;102411.50;5270739;28;20094;-73
2023/04/09 03:36:30;;;;;;;74.32;32.60;;;;;;;7.58;100.00;102402.72;5275704;28;20026;-73
2023/04/09 03:39:00;;;;;;;74.35;31.45;;;;;;;7.50;100.00;102404.13;5266918;28;20043;-73
2023/04/09 03:41:31;;;;;;;78.47;35.72;;;;;;;7.40;100.00;102411.09;5266442;28;20557;-73
2023/04/09 03:44:01;;;;;;;76.90;34.30;;;;;;;7.24;100.00;102400.63;5264099;28;20400;-73
2023/04/09 03:46:32;;;;;;;78.53;31.92;;;;;;;7.11;100.00;102396.25;5266140;28;20028;-73
2023/04/09 03:49:03;;;;;;;74.13;31.05;;;;;;;6.96;100.00;102404.34;5266596;28;20035;-73
2023/04/09 03:51:33;;;;;;;79.82;33.88;;;;;;;6.81;100.00;102394.72;5266284;28;20024;-73
2023/04/09 03:54:04;;;;;;;82.03;34.60;;;;;;;6.68;100.00;102396.50;5275727;28;20012;-73
2023/04/09 03:56:34;;;;;;;88.28;35.17;;;;;;;6.55;100.00;102400.94;5269667;28;20024;-73
2023/04/09 03:59:05;;;;;;;83.18;36.00;;;;;;;6.43;100.00;102398.16;5266324;28;20152;-73
2023/04/09 04:01:35;;;;;;;73.70;31.95;;;;;;;6.34;100.00;102395.22;5270292;28;20023;-73
2023/04/09 04:04:06;;;;;;;90.72;34.80;;;;;;;6.23;100.00;102395.94;5266410;28;20403;-73
2023/04/09 04:06:36;;;;;;;81.45;33.22;;;;;;;6.12;100.00;102393.09;5271087;28;20110;-73
2023/04/09 04:09:07;;;;;;;81.90;31.02;;;;;;;6.03;100.00;102394.56;5273674;28;20158;-73
2023/04/09 04:11:37;;;;;;;75.55;31.63;;;;;;;5.94;100.00;102400.47;5265412;28;20117;-73
2023/04/09 04:14:08;;;;;;;78.60;33.92;;;;;;;5.84;100.00;102394.84;5279459;28;20020;-73
2023/04/09 04:16:40;;;;;;;88.13;33.75;;;;;;;5.77;100.00;102390.84;5265929;28;20027;-73
2023/04/09 04:19:10;;;;;;;79.80;32.00;;;;;;;5.75;100.00;102397.25;5266393;28;20032;-73
2023/04/09 04:21:41;;;;;;;85.88;34.33;;;;;;;5.74;100.00;102398.22;5274236;28;20027;-73
2023/04/09 04:24:11;;;;;;;87.05;36.03;;;;;;;5.71;100.00;102399.25;5269226;28;20031;-73
2023/04/09 04:26:42;;;;;;;85.47;35.15;;;;;;;5.67;100.00;102397.72;5275729;28;20057;-73
2023/04/09 04:29:12;;;;;;;85.35;34.05;;;;;;;5.59;100.00;102387.56;5268910;28;20028;-73
2023/04/09 04:31:42;;;;;;;78.75;31.80;;;;;;;5.51;100.00;102389.84;5265806;28;20031;-73
2023/04/09 04:34:13;;;;;;;83.85;33.50;;;;;;;5.42;100.00;102388.63;5264063;28;20504;-73
2023/04/09 04:36:43;;;;;;;95.63;34.20;;;;;;;5.36;100.00;102394.31;5265933;28;20528;-73
2023/04/09 04:39:14;;;;;;;73.55;30.38;;;;;;;5.27;100.00;102400.22;5266573;28;20699;-73
2023/04/09 04:41:44;;;;;;;75.57;30.42;;;;;;;5.17;100.00;102405.25;5265341;28;20080;-73
2023/04/09 04:44:15;;;;;;;76.55;30.85;;;;;;;5.07;100.00;102398.78;5274342;28;20138;-73
2023/04/09 04:46:45;;;;;;;78.93;30.42;;;;;;;4.99;100.00;102400.19;5268300;28;20024;-73
2023/04/09 04:49:16;;;;;;;87.53;33.67;;;;;;;4.91;100.00;102403.28;5265551;28;20107;-73
2023/04/09 04:51:46;;;;;;;93.93;35.15;;;;;;;4.90;100.00;102396.25;5264041;28;20089;-73
2023/04/09 04:54:17;;;;;;;99.10;37.25;;;;;;;4.86;100.00;102406.22;5265725;28;20031;-73
2023/04/09 04:56:47;;;;;;;96.03;37.00;;;;;;;4.83;100.00;102409.06;5264663;28;20027;-73
2023/04/09 04:59:18;;;;;;;80.53;31.73;;;;;;;4.81;100.00;102402.13;5265231;28;20035;-73
2023/04/09 05:01:48;;;;;;;73.35;30.23;;;;;;;4.76;100.00;102404.19;5289521;28;20015;-73
2023/04/09 05:04:19;;;;;;;68.82;28.30;;;;;;;4.70;100.00;102415.19;5291655;28;20027;-73
2023/04/09 05:06:49;;;;;;;66.13;27.50;;;;;;;4.64;100.00;102414.59;5267224;28;20024;-73
2023/04/09 05:09:20;;;;;;;72.78;28.30;;;;;;;4.59;100.00;102416.69;5266290;28;20020;-73
2023/04/09 05:11:50;;;;;;;83.13;32.92;;;;;;;4.58;100.00;102411.47;5265695;28;20032;-73
2023/04/09 05:14:21;;;;;;;74.82;31.33;;;;;;;4.61;100.00;102419.22;5265461;28;20019;-73
2023/04/09 05:16:52;;;;;;;91.43;35.90;;;;;;;4.60;100.00;102413.06;5265300;28;20027;-73
2023/04/09 05:19:22;;;;;;;104.93;37.20;;;;;;;4.61;100.00;102405.94;5266239;28;20503;-73
2023/04/09 05:21:53;;;;;;;102.72;35.95;;;;;;;4.61;100.00;102411.25;5275728;28;20110;-73
2023/04/09 05:24:23;;;;;;;77.90;31.17;;;;;;;4.61;100.00;102416.56;5267171;28;20024;-73
2023/04/09 05:26:54;;;;;;;68.05;28.17;;;;;;;4.60;100.00;102412.22;5263689;28;20426;-73
2023/04/09 05:29:25;;;;;;;90.43;34.85;;;;;;;4.64;100.00;102419.06;5264934;28;20343;-74
2023/04/09 05:31:55;;;;;;;87.05;34.22;;;;;;;4.67;100.00;102416.25;5265245;28;20023;-73
2023/04/09 05:34:26;;;;;;;77.60;28.88;;;;;;;4.70;100.00;102415.19;5272281;28;20024;-73
2023/04/09 05:36:59;;;;;;;76.63;30.70;;;;;;;4.71;100.00;102407.13;5270287;28;20041;-73
2023/04/09 05:39:31;;;;;;;94.18;36.70;;;;;;;4.76;100.00;102413.03;5264263;28;20553;-73
2023/04/09 05:42:02;;;;;;;94.93;33.33;;;;;;;4.83;100.00;102408.22;5264700;28;20043;-73
2023/04/09 05:44:32;;;;;;;88.60;34.72;;;;;;;4.92;100.00;102402.34;5265063;28;20365;-74
2023/04/09 05:47:03;;;;;;;108.78;39.70;;;;;;;5.00;100.00;102410.72;5263818;28;20513;-73
2023/04/09 05:49:34;;;;;;;122.22;43.83;;;;;;;5.13;100.00;102402.88;5264903;28;20030;-73
2023/04/09 05:52:04;;;;;;;125.75;42.80;;;;;;;5.26;100.00;102410.94;5264814;28;20556;-73
2023/04/09 05:54:35;;;;;;;116.57;40.63;;;;;;;5.39;100.00;102404.78;5255778;28;20107;-73
2023/04/09 05:57:05;;;;;;;104.35;37.90;;;;;;;5.59;100.00;102405.34;5264238;28;20115;-73
2023/04/09 05:59:36;;;;;;;89.47;36.25;;;;;;;5.95;100.00;102408.38;5261795;28;20057;-73
2023/04/09 06:02:06;;;;;;;95.28;36.45;;;;;;;6.40;100.00;102408.16;5284361;28;20015;-73
2023/04/09 06:04:37;;;;;;;67.28;29.63;;;;;;;6.81;100.00;102412.53;5276953;28;20118;-74
2023/04/09 06:07:07;;;;;;;76.72;31.05;;;;;;;7.23;100.00;102412.28;5270031;28;20488;-74
2023/04/09 06:09:38;;;;;;;73.35;30.80;;;;;;;7.58;100.00;102418.75;5269517;28;20032;-74
2023/04/09 06:12:09;;;;;;;72.40;33.33;;;;;;;7.89;100.00;102418.28;5265327;28;20067;-74
2023/04/09 06:14:39;;;;;;;87.25;34.67;;;;;;;8.28;100.00;102419.00;5277606;28;20081;-74
2023/04/09 06:17:10;;;;;;;72.10;33.88;;;;;;;8.66;100.00;102412.66;5283712;27;20092;-74
2023/04/09 06:19:43;;;;;;;75.18;35.05;;;;;;;8.99;100.00;102412.78;5280564;28;20465;-74
2023/04/09 06:22:13;;;;;;;74.63;35.72;;;;;;;9.30;100.00;102408.56;5277835;28;20131;-74
2023/04/09 06:24:44;;;;;;;73.38;35.95;;;;;;;9.60;100.00;102407.13;5281100;27;20560;-74
2023/04/09 06:27:15;;;;;;;74.43;35.22;;;;;;;9.85;100.00;102419.44;5282904;28;20024;-74
2023/04/09 06:29:45;;;;;;;74.53;35.75;;;;;;;10.05;100.00;102416.00;5279912;28;20020;-74
2023/04/09 06:32:16;;;;;;;78.93;36.78;;;;;;;10.24;100.00;102409.13;5282640;28;20023;-73
2023/04/09 06:34:47;;;;;;;65.18;33.78;;;;;;;10.35;100.00;102418.03;5279695;28;20031;-74
2023/04/09 06:37:17;;;;;;;67.43;35.05;;;;;;;10.60;100.00;102414.16;5272771;28;20081;-74
2023/04/09 06:39:48;;;;;;;79.40;38.35;;;;;;;10.72;100.00;102420.31;5286379;27;20604;-74
2023/04/09 06:42:21;;;;;;;73.80;37.25;;;;;;;10.90;100.00;102425.97;5284572;28;20062;-74
2023/04/09 06:44:54;;;;;;;70.20;36.65;;;;;;;11.20;100.00;102425.19;5280676;28;20410;-74
2023/04/09 06:47:27;;;;;;;73.75;37.00;;;;;;;11.36;100.00;102427.41;5278064;28;20039;-74
2023/04/09 06:49:58;;;;;;;73.45;37.75;;;;;;;11.60;100.00;102429.78;5284688;28;20487;-74
2023/04/09 06:52:29;;;;;;;71.85;37.15;;;;;;;11.72;100.00;102433.22;5284420;27;20096;-74
2023/04/09 06:54:59;;;;;;;68.60;36.00;;;;;;;11.71;100.00;102428.84;5279608;27;20432;-74
2023/04/09 06:57:30;;;;;;;68.45;36.33;;;;;;;11.65;100.00;102428.41;5281026;28;20031;-74
2023/04/09 07:00:00;;;;;;;66.85;36.42;;;;;;;11.90;100.00;102434.34;5284170;28;20034;-74
2023/04/09 07:02:31;;;;;;;76.03;38.20;;;;;;;11.91;100.00;102436.03;5284399;28;20118;-74
2023/04/09 07:05:03;;;;;;;69.88;36.50;;;;;;;11.96;100.00;102430.25;5280683;28;20016;-74
2023/04/09 07:07:33;;;;;;;68.03;36.70;;;;;;;12.19;100.00;102429.88;5286057;28;20031;-74
2023/04/09 07:10:05;;;;;;;71.10;37.22;;;;;;;12.33;100.00;102428.63;5282210;27;20684;-74
2023/04/09 07:12:35;;;;;;;64.88;35.15;;;;;;;12.12;100.00;102428.72;5285066;28;20035;-74
2023/04/09 07:15:06;;;;;;;69.43;36.35;;;;;;;12.09;100.00;102423.59;5280299;28;20601;-74
2023/04/09 07:17:37;;;;;;;66.43;35.92;;;;;;;11.89;100.00;102422.69;5277641;28;20411;-74
2023/04/09 07:20:10;;;;;;;67.35;36.35;;;;;;;11.81;100.00;102427.06;5277865;28;20073;-74
2023/04/09 07:22:41;;;;;;;64.57;35.55;;;;;;;12.16;100.00;102427.47;5280832;28;20024;-74
2023/04/09 07:25:11;;;;;;;65.18;36.45;;;;;;;12.57;100.00;102428.22;5280671;28;20079;-74
2023/04/09 07:27:43;;;;;;;66.65;36.88;;;;;;;12.30;100.00;102433.41;5279306;28;20020;-74
2023/04/09 07:30:14;;;;;;;69.20;36.10;;;;;;;12.48;100.00;102433.59;5283244;28;20023;-74
2023/04/09 07:32:44;;;;;;;72.88;36.85;;;;;;;12.51;100.00;102428.81;5281645;28;20023;-74
2023/04/09 07:35:15;;;;;;;69.28;35.50;;;;;;;13.03;100.00;102426.66;5280539;28;20071;-74
2023/04/09 07:37:46;;;;;;;69.40;36.47;;;;;;;13.30;100.00;102431.28;5281862;27;20505;-74
2023/04/09 07:40:16;;;;;;;67.63;36.78;;;;;;;12.93;100.00;102423.13;5281419;28;20395;-74
2023/04/09 07:42:47;;;;;;;70.38;35.45;;;;;;;12.63;100.00;102429.50;5284604;28;20024;-74
2023/04/09 07:45:18;;;;;;;62.33;35.05;;;;;;;12.87;100.00;102426.38;5276512;28;20028;-74
2023/04/09 07:47:48;;;;;;;61.42;34.95;;;;;;;12.67;100.00;102428.25;5279980;28;20030;-74
2023/04/09 07:50:19;;;;;;;70.68;35.60;;;;;;;13.19;100.00;102436.81;5280923;27;20026;-74
2023/04/09 07:52:50;;;;;;;66.28;34.42;;;;;;;13.32;100.00;102429.31;5284577;28;20015;-74
2023/04/09 07:55:20;;;;;;;61.95;34.97;;;;;;;13.79;100.00;102425.75;5280812;28;20023;-74
2023/04/09 07:57:56;;;;;;;64.57;34.20;;;;;;;13.99;100.00;102430.88;5280540;28;20496;-74
2023/04/09 08:00:27;;;;;;;65.78;35.03;;;;;;;14.08;100.00;102426.44;5281256;28;20059;-74
2023/04/09 08:02:58;;;;;;;66.57;34.63;;;;;;;14.56;100.00;102424.44;5284011;28;20486;-74
2023/04/09 08:05:29;;;;;;;60.17;33.47;;;;;;;14.55;100.00;102422.75;5280779;28;20106;-75
2023/04/09 08:08:00;;;;;;;61.70;33.28;;;;;;;14.81;100.00;102423.69;5280782;28;20043;-75
2023/04/09 08:10:30;;;;;;;64.13;34.17;;;;;;;14.94;100.00;102423.28;5284022;28;20020;-74
2023/04/09 08:13:01;;;;;;;58.63;32.65;;;;;;;14.67;100.00;102425.09;5284581;28;20039;-74
2023/04/09 08:15:31;;;;;;;60.90;33.83;;;;;;;14.84;100.00;102428.75;5280041;28;20027;-74
2023/04/09 08:18:02;;;;;;;63.38;35.10;;;;;;;14.93;100.00;102425.13;5280949;28;20032;-74
2023/04/09 08:20:33;;;;;;;68.13;34.92;;;;;;;15.33;100.00;102425.59;5282531;28;20051;-74
2023/04/09 08:23:04;;;;;;;61.00;34.38;;;;;;;14.69;100.00;102425.75;5282941;28;20057;-74
2023/04/09 08:25:34;;;;;;;68.03;34.28;;;;;;;14.60;100.00;102420.44;5277405;28;20032;-74
2023/04/09 08:28:05;;;;;;;63.28;33.92;;;;;;;14.92;100.00;102419.88;5280907;28;20031;-74
2023/04/09 08:30:35;;;;;;;64.20;34.67;;;;;;;15.38;100.00;102421.41;5282792;28;20470;-74
2023/04/09 08:33:06;;;;;;;63.22;33.55;;;;;;;15.65;100.00;102422.25;5284070;28;20098;-74
2023/04/09 08:35:37;;;;;;;61.30;31.95;;;;;;;15.83;100.00;102412.19;5275702;28;20111;-74
2023/04/09 08:38:07;;;;;;;56.63;32.40;;;;;;;15.87;100.00;102428.97;5279605;28;20031;-75
2023/04/09 08:40:38;;;;;;;55.35;30.48;;;;;;;16.03;100.00;102427.16;5282612;28;20028;-75
2023/04/09 08:43:09;;;;;;;59.28;31.23;;;;;;;15.20;100.00;102423.28;5284140;27;20035;-74
2023/04/09 08:45:41;;;;;;;50.95;28.90;;;;;;;14.71;100.00;102421.06;5280149;28;20030;-74
2023/04/09 08:48:12;;;;;;;55.15;30.08;;;;;;;15.11;100.00;102418.81;5278614;28;20081;-74
2023/04/09 08:50:45;;;;;;;57.58;31.50;;;;;;;15.46;100.00;102417.88;5280550;28;20697;-74
2023/04/09 08:53:16;;;;;;;58.20;30.85;;;;;;;15.68;100.00;102411.97;5282943;28;20027;-75
2023/04/09 08:55:47;;;;;;;55.80;29.75;;;;;;;15.40;100.00;102413.13;5279548;28;20032;-74
2023/04/09 08:58:17;;;;;;;53.13;29.85;;;;;;;15.62;100.00;102414.44;5276799;27;20042;-75
2023/04/09 09:00:51;;;;;;;49.25;27.38;;;;;;;15.72;100.00;102417.91;5281065;28;20102;-74
2023/04/09 09:03:24;;;;;;;56.05;28.48;;;;;;;15.38;100.00;102410.56;5280381;28;20043;-74
2023/04/09 09:05:55;;;;;;;46.67;26.08;;;;;;;15.47;100.00;102408.78;5279232;28;20026;-74
2023/04/09 09:08:29;;;;;;;45.88;26.23;;;;;;;15.11;100.00;102408.91;5279890;28;20015;-74
2023/04/09 09:11:00;;;;;;;51.13;26.95;;;;;;;15.57;100.00;102408.66;5279345;27;20122;-74
2023/04/09 09:13:30;;;;;;;47.92;27.48;;;;;;;15.89;100.00;102413.41;5283077;28;20029;-74
2023/04/09 09:16:13;;;;;;;51.33;28.10;;;;;;;16.27;100.00;102410.13;5282093;28;20035;-75
2023/04/09 09:18:43;;;;;;;50.60;26.88;;;;;;;16.82;100.00;102411.41;5279146;28;20084;-73
2023/04/09 09:21:16;;;;;;;45.35;25.77;;;;;;;16.57;100.00;102408.66;5279864;27;20441;-74
2023/04/09 09:23:49;;;;;;;51.78;28.35;;;;;;;16.77;100.00;102402.97;5281607;28;20117;-74
2023/04/09 09:26:40;;;;;;;47.38;26.42;;;;;;;16.18;100.00;102415.69;5277880;28;20023;-75
2023/04/09 09:29:11;;;;;;;49.40;25.73;;;;;;;16.88;100.00;102409.91;5276367;28;20032;-74
2023/04/09 09:31:57;;;;;;;47.53;27.90;;;;;;;16.49;100.00;102399.69;5284386;28;20039;-75
2023/04/09 09:34:27;;;;;;;49.60;27.48;;;;;;;16.83;100.00;102405.81;5286721;28;20028;-74
2023/04/09 09:36:58;;;;;;;46.90;26.38;;;;;;;17.06;100.00;102394.28;5276777;28;20023;-75
2023/04/09 09:39:43;;;;;;;48.95;26.27;;;;;;;17.12;100.00;102404.47;5281028;28;20023;-74
2023/04/09 09:42:14;;;;;;;;;;;;;;;16.96;100.00;102399.88;5281548;28;20027;-74
2023/04/09 09:44:45;;;;;;;44.78;26.13;;;;;;;16.50;100.00;102395.94;5295254;27;20312;-75
2023/04/09 09:47:18;;;;;;;48.13;26.23;;;;;;;17.25;100.00;102391.19;5289197;27;20059;-75
2023/04/09 09:49:49;;;;;;;48.42;25.27;;;;;;;17.21;100.00;102394.41;5296520;27;20183;-75
2023/04/09 09:52:25;;;;;;;52.33;26.77;;;;;;;16.58;100.00;102388.69;5284405;28;20026;-75
2023/04/09 09:54:58;;;;;;;43.88;25.55;;;;;;;16.34;100.00;102385.09;5284082;28;20579;-75
2023/04/09 09:57:30;;;;;;;50.80;26.48;;;;;;;16.92;100.00;102381.41;5280579;28;20452;-75
2023/04/09 10:00:03;;;;;;;49.40;26.05;;;;;;;16.93;100.00;102372.28;5281491;28;20027;-75
2023/04/09 10:02:42;;;;;;;51.17;26.20;;;;;;;16.90;100.00;102370.75;5287435;28;20114;-75
2023/04/09 10:05:14;;;;;;;46.42;25.27;;;;;;;17.10;100.00;102365.81;5287813;28;20053;-75
2023/04/09 10:07:46;;;;;;;45.33;25.42;;;;;;;16.63;100.00;102368.38;5279257;28;20024;-75
2023/04/09 10:10:17;;;;;;;49.78;25.80;;;;;;;16.48;100.00;102363.63;5267381;28;20027;-75
2023/04/09 10:12:48;;;;;;;42.92;22.67;;;;;;;16.51;100.00;102368.69;5283658;28;20396;-75
2023/04/09 10:15:18;;;;;;;46.42;24.63;;;;;;;16.44;100.00;102361.41;5287881;28;20103;-75
2023/04/09 10:17:49;;;;;;;48.30;25.05;;;;;;;16.21;100.00;102353.91;5280545;28;20032;-75
2023/04/09 10:20:25;;;;;;;48.35;24.73;;;;;;;16.50;100.00;102368.84;5283822;28;20030;-75
2023/04/09 10:23:02;;;;;;;44.03;22.52;;;;;;;16.99;100.00;102356.16;5285484;28;20031;-75
2023/04/09 10:25:33;;;;;;;41.78;23.10;;;;;;;17.10;100.00;102349.53;5284600;28;20032;-75
2023/04/09 10:28:15;;;;;;;37.72;21.45;;;;;;;16.70;100.00;102350.41;5277758;28;20036;-75
2023/04/09 10:30:46;;;;;;;38.58;21.15;;;;;;;16.30;100.00;102342.09;5283405;28;20011;-75
2023/04/09 10:33:25;;;;;;;46.38;22.52;;;;;;;16.46;100.00;102354.78;5285430;28;20050;-75
2023/04/09 10:36:03;;;;;;;45.42;24.00;;;;;;;16.40;100.00;102341.94;5281130;28;20020;-75
2023/04/09 10:38:36;;;;;;;37.92;22.20;;;;;;;16.47;100.00;102342.13;5279719;28;20038;-75
2023/04/09 10:41:12;;;;;;;43.05;22.45;;;;;;;16.48;100.00;102328.41;5282317;28;20027;-75
2023/04/09 10:43:46;;;;;;;42.47;22.52;;;;;;;16.18;100.00;102332.59;5284215;28;20023;-75
2023/04/09 10:46:35;;;;;;;47.30;23.63;;;;;;;16.08;100.00;102320.25;5281430;28;20051;-75
2023/04/09 10:49:08;;;;;;;41.75;23.10;;;;;;;15.91;100.00;102331.00;5278419;28;20570;-75
2023/04/09 10:51:39;;;;;;;43.83;23.52;;;;;;;15.84;100.00;102327.28;5281972;27;20057;-75
2023/04/09 10:54:36;;;;;;;41.40;22.75;;;;;;;16.23;100.00;102316.72;5285376;27;20399;-75
2023/04/09 10:57:07;;;;;;;43.42;21.85;;;;;;;16.23;100.00;102324.00;5275661;28;20040;-75
2023/04/09 10:59:50;;;;;;;44.53;22.90;;;;;;;15.74;100.00;102323.88;5281502;28;20042;-75
2023/04/09 11:02:37;;;;;;;41.63;22.33;;;;;;;15.77;100.00;102324.41;5283419;28;20530;-75
2023/04/09 11:05:31;;;;;;;41.88;21.27;;;;;;;15.86;100.00;102325.25;5278590;28;20481;-75
2023/04/09 11:08:21;;;;;;;40.83;22.50;;;;;;;16.31;100.00;102314.00;5273195;28;20426;-75
2023/04/09 11:10:55;;;;;;;45.17;23.08;;;;;;;16.30;100.00;102317.72;5281910;28;20023;-75
2023/04/09 11:13:27;;;;;;;40.17;20.95;;;;;;;16.72;100.00;102305.91;5284266;28;20015;-75
2023/04/09 11:15:59;;;;;;;37.05;20.55;;;;;;;16.70;100.00;102297.03;5281852;28;20078;-75
2023/04/09 11:18:32;;;;;;;39.70;20.65;;;;;;;16.65;100.00;102291.28;5282424;28;20391;-75
2023/04/09 11:21:03;;;;;;;41.80;21.60;;;;;;;16.50;100.00;102295.72;5277130;27;20027;-75
2023/04/09 11:23:33;;;;;;;42.42;22.70;;;;;;;16.28;100.00;102294.53;5284263;28;20027;-75
2023/04/09 11:26:04;;;;;;;42.85;22.55;;;;;;;16.70;100.00;102291.63;5281789;28;20511;-75
2023/04/09 11:28:35;;;;;;;37.25;20.75;;;;;;;16.89;100.00;102293.16;5282381;28;20126;-75
2023/04/09 11:31:05;;;;;;;36.70;20.73;;;;;;;16.38;100.00;102291.66;5275866;28;20072;-75